createdAt,value
2019-04-05T00:00:09.471Z,3.72
2019-04-05T00:02:38.973Z,3.67
2019-04-05T00:05:08.541Z,3.63
2019-04-05T00:07:37.953Z,3.65
2019-04-05T00:10:07.903Z,3.67
2019-04-05T00:12:37.293Z,3.63
2019-04-05T00:15:15.216Z,3.59
2019-04-05T00:17:38.755Z,3.68
2019-04-05T00:20:09.040Z,3.69
2019-04-05T00:22:38.438Z,3.69
2019-04-05T00:25:08.099Z,3.68
2019-04-05T00:27:37.571Z,3.64
2019-04-05T00:30:08.721Z,3.60
2019-04-05T00:32:38.155Z,3.64
2019-04-05T00:35:08.595Z,3.55
2019-04-05T00:37:38.002Z,3.49
2019-04-05T00:40:09.911Z,3.43
2019-04-05T00:42:39.318Z,3.44
2019-04-05T00:45:09.266Z,3.45
2019-04-05T00:47:38.752Z,3.41
2019-04-05T00:50:08.953Z,3.43
2019-04-05T00:52:38.391Z,3.46
2019-04-05T00:55:08.950Z,3.52
2019-04-05T00:57:38.362Z,3.51
2019-04-05T01:00:08.225Z,3.58
2019-04-05T01:02:37.725Z,3.56
2019-04-05T01:05:08.288Z,3.42
2019-04-05T01:07:37.819Z,3.32
2019-04-05T01:10:07.988Z,3.27
2019-04-05T01:12:39.397Z,3.23
2019-04-05T01:15:10.897Z,3.21
2019-04-05T01:17:40.469Z,3.26
2019-04-05T01:20:10.729Z,3.28
2019-04-05T01:22:41.498Z,3.23
2019-04-05T01:25:11.088Z,3.24
2019-04-05T01:27:41.527Z,3.16
2019-04-05T01:30:17.240Z,3.16
2019-04-05T01:32:47.312Z,3.16
2019-04-05T01:35:16.799Z,3.19
2019-04-05T01:37:46.835Z,3.19
2019-04-05T01:40:16.520Z,3.15
2019-04-05T01:42:46.698Z,3.17
2019-04-05T01:45:16.134Z,3.22
2019-04-05T01:47:45.528Z,3.23
2019-04-05T01:50:16.191Z,3.22
2019-04-05T01:52:46.331Z,3.17
2019-04-05T01:55:15.800Z,3.15
2019-04-05T01:57:45.192Z,3.21
2019-04-05T02:00:14.954Z,3.12
2019-04-05T02:02:44.417Z,3.06
2019-04-05T02:05:14.246Z,3.04
2019-04-05T02:07:43.804Z,3.06
2019-04-05T02:10:13.963Z,3.08
2019-04-05T02:12:43.374Z,3.11
2019-04-05T02:15:18.575Z,3.13
2019-04-05T02:17:48.047Z,3.20
2019-04-05T02:20:17.661Z,3.29
2019-04-05T02:22:47.076Z,3.42
2019-04-05T02:25:16.467Z,3.51
2019-04-05T02:27:45.881Z,3.54
2019-04-05T02:30:15.830Z,3.64
2019-04-05T02:32:45.416Z,3.65
2019-04-05T02:35:14.925Z,3.63
2019-04-05T02:37:44.573Z,3.58
2019-04-05T02:40:16.363Z,3.56
2019-04-05T02:42:47.722Z,3.52
2019-04-05T02:45:18.984Z,3.50
2019-04-05T02:47:57.414Z,3.55
2019-04-05T02:50:29.864Z,3.55
2019-04-05T02:53:02.345Z,3.67
2019-04-05T02:55:32.788Z,3.74
2019-04-05T02:58:03.516Z,3.75
2019-04-05T03:00:34.018Z,3.74
2019-04-05T03:03:05.540Z,3.73
2019-04-05T03:05:36.387Z,3.71
2019-04-05T03:08:06.751Z,3.72
2019-04-05T03:10:47.850Z,3.72
2019-04-05T03:13:17.409Z,3.71
2019-04-05T03:15:47.052Z,3.72
2019-04-05T03:18:16.815Z,3.72
2019-04-05T03:20:46.442Z,3.78
2019-04-05T03:23:15.947Z,3.86
2019-04-05T03:25:48.178Z,3.77
2019-04-05T03:28:18.307Z,3.67
2019-04-05T03:30:48.252Z,3.68
2019-04-05T03:33:17.836Z,3.65
2019-04-05T03:35:47.302Z,3.62
2019-04-05T03:38:17.761Z,3.51
2019-04-05T03:40:48.589Z,3.41
2019-04-05T03:43:18.260Z,3.45
2019-04-05T03:45:47.737Z,3.48
2019-04-05T03:48:17.592Z,3.55
2019-04-05T03:50:47.324Z,3.54
2019-04-05T03:53:16.986Z,3.55
2019-04-05T03:55:46.451Z,3.53
2019-04-05T03:58:16.039Z,3.54
2019-04-05T04:00:45.711Z,3.52
2019-04-05T04:03:15.316Z,3.47
2019-04-05T04:05:45.032Z,3.46
2019-04-05T04:08:14.707Z,3.44
2019-04-05T04:10:44.198Z,3.42
2019-04-05T04:13:13.862Z,3.44
2019-04-05T04:15:43.511Z,3.39
2019-04-05T04:18:13.032Z,3.32
2019-04-05T04:20:48.636Z,3.25
2019-04-05T04:23:20.627Z,3.15
2019-04-05T04:25:51.481Z,3.05
2019-04-05T04:28:21.440Z,2.96
2019-04-05T04:30:51.095Z,2.92
2019-04-05T04:33:20.828Z,2.86
2019-04-05T04:35:51.270Z,2.95
2019-04-05T04:38:20.763Z,2.91
2019-04-05T04:40:50.402Z,2.85
2019-04-05T04:43:20.863Z,2.83
2019-04-05T04:45:50.590Z,2.88
2019-04-05T04:48:20.037Z,2.88
2019-04-05T04:50:49.673Z,2.87
2019-04-05T04:53:19.626Z,2.89
2019-04-05T04:55:49.269Z,2.99
2019-04-05T04:58:19.229Z,3.02
2019-04-05T05:00:48.810Z,3.07
2019-04-05T05:03:18.668Z,3.11
2019-04-05T05:05:48.333Z,3.18
2019-04-05T05:08:18.396Z,3.24
2019-04-05T05:10:48.343Z,3.23
2019-04-05T05:13:18.007Z,3.29
2019-04-05T05:15:47.744Z,3.31
2019-04-05T05:18:17.409Z,3.36
2019-04-05T05:20:46.881Z,3.45
2019-04-05T05:23:16.447Z,3.55
2019-04-05T05:25:47.025Z,3.65
2019-04-05T05:28:16.977Z,3.61
2019-04-05T05:30:46.616Z,3.64
2019-04-05T05:33:16.112Z,3.69
2019-04-05T05:35:45.689Z,3.69
2019-04-05T05:38:15.352Z,3.65
2019-04-05T05:40:44.758Z,3.71
2019-04-05T05:43:14.164Z,3.70
2019-04-05T05:45:43.572Z,3.72
2019-04-05T05:48:13.391Z,3.70
2019-04-05T05:50:43.784Z,3.72
2019-04-05T05:53:13.558Z,3.73
2019-04-05T05:55:42.981Z,3.78
2019-04-05T05:58:12.398Z,3.85
2019-04-05T06:00:41.810Z,3.85
2019-04-05T06:03:12.061Z,3.93
2019-04-05T06:05:43.347Z,3.94
2019-04-05T06:08:12.859Z,3.98
2019-04-05T06:10:42.261Z,4.00
2019-04-05T06:13:11.660Z,4.03
2019-04-05T06:15:41.095Z,4.10
2019-04-05T06:18:12.681Z,4.09
2019-04-05T06:20:42.545Z,4.13
2019-04-05T06:23:11.975Z,4.14
2019-04-05T06:25:41.386Z,4.21
2019-04-05T06:28:10.885Z,4.20
2019-04-05T06:30:40.279Z,4.24
2019-04-05T06:33:09.709Z,4.21
2019-04-05T06:35:39.117Z,4.24
2019-04-05T06:38:08.535Z,4.24
2019-04-05T06:40:40.973Z,4.31
2019-04-05T06:43:09.050Z,4.46
2019-04-05T06:45:38.445Z,4.54
2019-04-05T06:48:18.568Z,4.60
2019-04-05T06:50:38.983Z,4.70
2019-04-05T06:53:08.409Z,4.76
2019-04-05T06:55:37.815Z,4.68
2019-04-05T06:58:10.236Z,4.80
2019-04-05T07:00:38.408Z,4.65
2019-04-05T07:03:07.829Z,4.70
2019-04-05T07:05:37.232Z,4.86
2019-04-05T07:08:06.651Z,5.04
2019-04-05T07:10:36.055Z,5.21
2019-04-05T07:13:05.780Z,5.33
2019-04-05T07:15:35.230Z,5.62
2019-04-05T07:18:04.833Z,5.81
2019-04-05T07:20:34.235Z,6.17
2019-04-05T07:23:03.632Z,6.22
2019-04-05T07:25:33.216Z,6.14
2019-04-05T07:28:02.634Z,6.25
2019-04-05T07:30:32.758Z,6.39
2019-04-05T07:33:02.239Z,6.64
2019-04-05T07:35:33.709Z,6.83
2019-04-05T07:38:03.479Z,7.01
2019-04-05T07:40:32.902Z,7.07
2019-04-05T07:43:02.290Z,7.15
2019-04-05T07:45:31.730Z,7.59
2019-04-05T07:48:01.244Z,7.75
2019-04-05T07:50:30.700Z,7.64
2019-04-05T07:53:00.111Z,8.13
2019-04-05T07:55:29.534Z,8.50
2019-04-05T07:57:58.932Z,8.98
2019-04-05T08:00:43.667Z,9.48
2019-04-05T08:03:13.140Z,9.54
2019-04-05T08:05:42.999Z,9.56
2019-04-05T08:08:15.453Z,10.11
2019-04-05T08:10:45.758Z,10.16
2019-04-05T08:13:17.064Z,10.07
2019-04-05T08:15:46.496Z,10.16
2019-04-05T08:18:15.900Z,10.26
2019-04-05T08:20:45.319Z,10.40
2019-04-05T08:23:14.724Z,10.20
2019-04-05T08:25:44.153Z,10.51
2019-04-05T08:28:13.563Z,10.40
2019-04-05T08:30:43.087Z,10.98
2019-04-05T08:33:12.516Z,11.29
2019-04-05T08:35:42.111Z,11.67
2019-04-05T08:38:11.582Z,12.12
2019-04-05T08:40:41.013Z,11.87
2019-04-05T08:43:10.497Z,12.18
2019-04-05T08:45:40.019Z,12.43
2019-04-05T08:48:09.596Z,13.16
2019-04-05T08:50:39.033Z,14.72
2019-04-05T08:53:08.453Z,15.71
2019-04-05T08:55:37.936Z,17.47
2019-04-05T08:58:07.332Z,18.83
2019-04-05T09:00:36.769Z,20.50
2019-04-05T09:03:06.243Z,21.17
2019-04-05T09:05:35.746Z,22.16
2019-04-05T09:08:05.225Z,22.48
2019-04-05T09:10:34.827Z,24.13
2019-04-05T09:13:04.234Z,24.83
2019-04-05T09:15:33.666Z,26.25
2019-04-05T09:18:03.147Z,27.18
2019-04-05T09:20:32.565Z,27.68
2019-04-05T09:23:02.109Z,26.60
2019-04-05T09:25:31.581Z,26.16
2019-04-05T09:28:00.996Z,23.68
2019-04-05T09:30:30.436Z,21.23
2019-04-05T09:32:59.857Z,19.43
2019-04-05T09:35:29.278Z,17.65
2019-04-05T09:37:58.703Z,16.83
2019-04-05T09:40:28.146Z,15.95
2019-04-05T09:42:57.528Z,16.98
2019-04-05T09:45:26.951Z,18.06
2019-04-05T09:47:56.360Z,17.63
2019-04-05T09:50:25.801Z,17.30
2019-04-05T09:52:55.280Z,18.84
2019-04-05T09:55:24.709Z,19.03
2019-04-05T09:57:54.116Z,17.98
2019-04-05T10:00:25.341Z,18.75
2019-04-05T10:02:54.835Z,19.48
2019-04-05T10:05:24.262Z,22.74
2019-04-05T10:07:55.398Z,23.25
2019-04-05T10:10:24.778Z,26.11
2019-04-05T10:12:54.260Z,27.99
2019-04-05T10:15:23.696Z,28.91
2019-04-05T10:17:53.298Z,29.69
2019-04-05T10:20:22.718Z,29.59
2019-04-05T10:22:52.122Z,31.08
2019-04-05T10:25:21.554Z,30.42
2019-04-05T10:27:50.961Z,27.94
2019-04-05T10:30:20.704Z,28.90
2019-04-05T10:32:50.110Z,29.87
2019-04-05T10:35:19.558Z,28.09
2019-04-05T10:37:48.958Z,25.89
2019-04-05T10:40:18.612Z,24.42
2019-04-05T10:42:48.017Z,22.43
2019-04-05T10:45:17.603Z,20.78
2019-04-05T10:47:47.068Z,20.04
2019-04-05T10:50:17.028Z,18.41
2019-04-05T10:52:46.453Z,17.61
2019-04-05T10:55:16.103Z,16.75
2019-04-05T10:57:45.887Z,16.10
2019-04-05T11:00:17.357Z,16.01
2019-04-05T11:02:46.763Z,16.13
2019-04-05T11:05:16.548Z,16.16
2019-04-05T11:07:45.976Z,16.07
2019-04-05T11:10:17.497Z,16.07
2019-04-05T11:12:49.736Z,16.20
2019-04-05T11:15:18.379Z,16.17
2019-04-05T11:17:47.888Z,15.69
2019-04-05T11:20:21.946Z,15.62
2019-04-05T11:22:50.162Z,15.11
2019-04-05T11:25:20.982Z,14.66
2019-04-05T11:27:50.674Z,14.48
2019-04-05T11:30:39.895Z,14.28
2019-04-05T11:33:09.511Z,14.19
2019-04-05T11:35:39.313Z,14.03
2019-04-05T11:38:08.769Z,13.94
2019-04-05T11:40:38.909Z,13.54
2019-04-05T11:43:08.317Z,13.48
2019-04-05T11:45:37.785Z,13.45
2019-04-05T11:48:08.135Z,13.36
2019-04-05T11:51:11.776Z,13.44
2019-04-05T11:53:41.237Z,13.41
2019-04-05T11:56:15.009Z,13.41
2019-04-05T11:58:43.400Z,13.28
2019-04-05T12:01:26.771Z,13.47
2019-04-05T12:03:56.158Z,13.42
2019-04-05T12:06:25.570Z,13.53
2019-04-05T12:08:59.315Z,13.68
2019-04-05T12:11:28.595Z,13.92
2019-04-05T12:13:58.028Z,14.04
2019-04-05T12:16:27.428Z,14.40
2019-04-05T12:18:58.894Z,14.62
2019-04-05T12:21:27.929Z,14.46
2019-04-05T12:23:57.318Z,14.49
2019-04-05T12:26:26.744Z,14.22
2019-04-05T12:28:56.155Z,14.15
2019-04-05T12:31:26.646Z,14.16
2019-04-05T12:33:56.061Z,14.08
2019-04-05T12:36:25.476Z,13.95
2019-04-05T12:38:54.886Z,14.09
2019-04-05T12:41:24.294Z,14.09
2019-04-05T12:43:53.703Z,14.07
2019-04-05T12:46:23.269Z,14.04
2019-04-05T12:48:52.673Z,13.92
2019-04-05T12:51:22.078Z,13.67
2019-04-05T12:53:51.493Z,13.47
2019-04-05T12:56:20.988Z,13.27
2019-04-05T12:58:50.433Z,13.01
2019-04-05T13:01:19.818Z,12.71
2019-04-05T13:03:51.141Z,12.50
2019-04-05T13:06:21.752Z,12.31
2019-04-05T13:08:51.642Z,12.27
2019-04-05T13:11:25.935Z,12.23
2019-04-05T13:13:54.385Z,12.19
2019-04-05T13:16:24.783Z,12.27
2019-04-05T13:18:54.307Z,12.27
2019-04-05T13:21:27.397Z,12.33
2019-04-05T13:23:54.866Z,12.51
2019-04-05T13:26:26.396Z,12.59
2019-04-05T13:28:55.409Z,12.58
2019-04-05T13:31:24.813Z,12.73
2019-04-05T13:33:55.174Z,12.91
2019-04-05T13:36:24.988Z,13.25
2019-04-05T13:38:55.295Z,13.53
2019-04-05T13:41:24.847Z,13.81
2019-04-05T13:43:54.285Z,14.06
2019-04-05T13:46:26.135Z,14.20
2019-04-05T13:48:54.812Z,14.25
2019-04-05T13:51:28.244Z,14.20
2019-04-05T13:53:55.335Z,14.23
2019-04-05T13:56:24.730Z,14.07
2019-04-05T13:58:54.164Z,13.83
2019-04-05T14:01:23.559Z,13.67
2019-04-05T14:03:52.978Z,13.52
2019-04-05T14:06:22.371Z,13.54
2019-04-05T14:08:51.784Z,13.53
2019-04-05T14:11:21.184Z,13.29
2019-04-05T14:13:50.620Z,13.31
2019-04-05T14:16:20.064Z,13.21
2019-04-05T14:18:49.932Z,13.13
2019-04-05T14:21:22.247Z,12.99
2019-04-05T14:23:51.317Z,12.95
2019-04-05T14:26:21.696Z,12.81
2019-04-05T14:28:52.969Z,12.75
2019-04-05T14:31:22.218Z,12.68
2019-04-05T14:33:53.965Z,12.50
2019-04-05T14:36:29.436Z,12.38
2019-04-05T14:38:59.286Z,12.33
2019-04-05T14:41:28.652Z,12.10
2019-04-05T14:43:58.086Z,11.97
2019-04-05T14:46:28.982Z,11.91
2019-04-05T14:49:00.732Z,11.78
2019-04-05T14:51:29.736Z,11.67
2019-04-05T14:53:59.603Z,11.60
2019-04-05T14:56:30.259Z,11.48
2019-04-05T14:58:59.682Z,11.48
2019-04-05T15:01:29.174Z,11.35
2019-04-05T15:04:00.231Z,11.38
2019-04-05T15:06:29.635Z,11.29
2019-04-05T15:09:01.916Z,11.26
2019-04-05T15:11:30.164Z,11.28
2019-04-05T15:13:59.567Z,11.25
2019-04-05T15:16:28.984Z,11.18
2019-04-05T15:18:58.428Z,11.11
2019-04-05T15:21:27.824Z,11.01
2019-04-05T15:23:57.225Z,10.93
2019-04-05T15:26:26.639Z,10.85
2019-04-05T15:28:56.065Z,10.87
2019-04-05T15:31:26.549Z,10.89
2019-04-05T15:33:58.398Z,10.78
2019-04-05T15:36:29.426Z,10.73
2019-04-05T15:39:01.113Z,10.78
2019-04-05T15:41:30.295Z,10.81
2019-04-05T15:43:59.701Z,10.90
2019-04-05T15:46:29.141Z,10.77
2019-04-05T15:48:58.551Z,10.79
2019-04-05T15:51:28.043Z,10.80
2019-04-05T15:53:59.510Z,10.70
2019-04-05T15:56:28.600Z,10.68
2019-04-05T15:59:03.646Z,10.66
2019-04-05T16:01:32.144Z,10.56
2019-04-05T16:04:03.447Z,10.55
2019-04-05T16:06:32.877Z,10.58
2019-04-05T16:09:02.291Z,10.61
2019-04-05T16:11:31.796Z,10.50
2019-04-05T16:14:01.198Z,10.49
2019-04-05T16:16:30.728Z,10.44
2019-04-05T16:19:00.142Z,10.47
2019-04-05T16:21:29.576Z,10.42
2019-04-05T16:23:58.973Z,10.47
2019-04-05T16:26:28.390Z,10.35
2019-04-05T16:28:57.793Z,10.34
2019-04-05T16:31:27.241Z,10.36
2019-04-05T16:33:56.800Z,10.23
2019-04-05T16:36:26.355Z,10.23
2019-04-05T16:38:58.885Z,10.24
2019-04-05T16:41:26.872Z,10.21
2019-04-05T16:43:56.270Z,10.07
2019-04-05T16:46:25.687Z,10.06
2019-04-05T16:48:55.096Z,10.15
2019-04-05T16:51:24.530Z,10.12
2019-04-05T16:54:00.535Z,10.13
2019-04-05T16:56:30.418Z,10.11
2019-04-05T16:58:59.891Z,10.03
2019-04-05T17:01:29.390Z,10.04
2019-04-05T17:03:58.804Z,10.11
2019-04-05T17:06:28.231Z,10.00
2019-04-05T17:08:57.623Z,9.92
2019-04-05T17:11:27.037Z,9.91
2019-04-05T17:13:59.381Z,9.83
2019-04-05T17:16:27.629Z,9.71
2019-04-05T17:18:57.034Z,9.65
2019-04-05T17:21:26.460Z,9.66
2019-04-05T17:23:55.869Z,9.65
2019-04-05T17:26:25.298Z,9.53
2019-04-05T17:28:54.694Z,9.52
2019-04-05T17:31:24.115Z,9.46
2019-04-05T17:33:53.514Z,9.40
2019-04-05T17:36:22.995Z,9.49
2019-04-05T17:38:52.337Z,9.45
2019-04-05T17:41:21.758Z,9.34
2019-04-05T17:43:51.166Z,9.33
2019-04-05T17:46:20.605Z,9.31
2019-04-05T17:48:51.823Z,9.31
2019-04-05T17:51:21.135Z,9.37
2019-04-05T17:53:50.710Z,9.31
2019-04-05T17:56:20.680Z,9.28
2019-04-05T17:58:50.710Z,9.24
2019-04-05T18:01:20.143Z,9.16
2019-04-05T18:03:49.574Z,9.24
2019-04-05T18:06:18.994Z,9.13
2019-04-05T18:08:48.458Z,9.10
2019-04-05T18:11:17.924Z,9.09
2019-04-05T18:13:47.406Z,9.18
2019-04-05T18:16:16.904Z,9.12
2019-04-05T18:18:46.307Z,8.96
2019-04-05T18:21:15.799Z,9.03
2019-04-05T18:23:45.204Z,8.99
2019-04-05T18:26:14.619Z,8.95
2019-04-05T18:28:44.032Z,8.94
2019-04-05T18:31:13.666Z,8.81
2019-04-05T18:33:43.086Z,8.82
2019-04-05T18:36:12.608Z,8.73
2019-04-05T18:38:42.219Z,8.70
2019-04-05T18:43:33.089Z,8.72
2019-04-05T18:46:02.504Z,8.70
2019-04-05T18:48:31.968Z,8.70
2019-04-05T18:51:01.446Z,8.75
2019-04-05T18:53:37.458Z,8.74
2019-04-05T18:56:01.970Z,8.63
2019-04-05T18:58:31.387Z,8.64
2019-04-05T19:01:00.808Z,8.60
2019-04-05T19:03:30.303Z,8.55
2019-04-05T19:05:59.706Z,8.51
2019-04-05T19:08:39.113Z,8.56
2019-04-05T19:11:00.302Z,8.49
2019-04-05T19:13:29.738Z,8.56
2019-04-05T19:15:59.128Z,8.56
2019-04-05T19:18:28.659Z,8.50
2019-04-05T19:20:58.242Z,8.44
2019-04-05T19:23:27.657Z,8.43
2019-04-05T19:25:57.065Z,8.51
2019-04-05T19:28:26.485Z,8.41
2019-04-05T19:48:35.538Z,8.50
2019-04-05T19:51:05.363Z,8.41
2019-04-05T19:53:34.795Z,8.32
2019-04-05T19:56:04.208Z,8.53
2019-04-05T19:58:33.616Z,8.40
2019-04-05T20:01:03.092Z,8.33
2019-04-05T20:03:32.511Z,8.32
2019-04-05T20:06:01.916Z,8.35
2019-04-05T20:08:31.447Z,8.36
2019-04-05T20:11:00.865Z,8.36
2019-04-05T20:13:30.400Z,8.39
2019-04-05T20:15:59.765Z,8.39
2019-04-05T20:18:29.187Z,8.39
2019-04-05T20:20:58.587Z,8.37
2019-04-05T20:23:28.013Z,8.36
2019-04-05T20:25:57.440Z,8.32
2019-04-05T20:28:26.880Z,8.30
2019-04-05T20:30:56.359Z,8.41
2019-04-05T20:33:25.791Z,8.42
2019-04-05T20:35:55.254Z,8.32
2019-04-05T20:38:24.674Z,8.34
2019-04-05T20:40:54.077Z,8.28
2019-04-05T20:43:23.503Z,8.31
2019-04-05T20:45:52.904Z,8.46
2019-04-05T20:48:22.336Z,8.36
2019-04-05T20:50:51.749Z,8.41
2019-04-05T20:53:21.199Z,8.34
2019-04-05T20:55:50.605Z,8.34
2019-04-05T20:58:20.088Z,8.36
2019-04-05T21:00:49.587Z,8.32
2019-04-05T21:03:19.098Z,8.30
2019-04-05T21:05:48.602Z,8.32
2019-04-05T21:08:17.998Z,8.31
2019-04-05T21:10:47.415Z,8.28
2019-04-05T21:13:16.900Z,8.31
2019-04-05T21:15:46.337Z,8.30
2019-04-05T21:18:15.730Z,8.29
2019-04-05T21:20:45.494Z,8.29
2019-04-05T21:23:14.892Z,8.34
2019-04-05T21:25:44.368Z,8.33
2019-04-05T21:28:13.803Z,8.30
2019-04-05T21:30:43.196Z,8.31
2019-04-05T21:33:12.609Z,8.31
2019-04-05T21:35:42.044Z,8.32
2019-04-05T21:38:11.448Z,8.43
2019-04-05T21:40:40.886Z,8.41
2019-04-05T21:43:10.294Z,8.41
2019-04-05T21:45:39.718Z,8.39
2019-04-05T21:48:09.119Z,8.34
2019-04-05T21:50:38.560Z,8.37
2019-04-05T21:53:07.960Z,8.34
2019-04-05T21:55:37.407Z,8.33
2019-04-05T21:58:06.795Z,8.36
2019-04-05T22:00:40.482Z,8.36
2019-04-05T22:03:09.897Z,8.37
2019-04-05T22:05:39.307Z,8.32
2019-04-05T22:08:08.715Z,8.28
2019-04-05T22:10:38.173Z,8.28
2019-04-05T22:13:07.545Z,8.29
2019-04-05T22:15:36.974Z,8.35
2019-04-05T22:18:06.366Z,8.37
2019-04-05T22:20:35.800Z,8.36
2019-04-05T22:23:05.201Z,8.35
2019-04-05T22:25:34.623Z,8.46
2019-04-05T22:28:04.415Z,8.36
2019-04-05T22:30:33.849Z,8.33
2019-04-05T22:33:03.423Z,8.32
2019-04-05T22:35:32.841Z,8.29
2019-04-05T22:38:02.316Z,8.25
2019-04-05T22:40:32.047Z,8.22
2019-04-05T22:43:01.447Z,8.20
2019-04-05T22:45:30.902Z,8.12
2019-04-05T22:48:00.305Z,8.10
2019-04-05T22:50:29.969Z,8.07
2019-04-05T22:52:59.439Z,7.99
2019-04-05T22:55:28.857Z,7.97
2019-04-05T22:57:58.252Z,7.91
2019-04-05T23:00:27.700Z,7.90
2019-04-05T23:02:57.072Z,7.85
2019-04-05T23:05:26.503Z,7.82
2019-04-05T23:07:55.892Z,7.81
2019-04-05T23:10:25.324Z,7.77
2019-04-05T23:12:54.726Z,7.77
2019-04-05T23:15:24.148Z,7.73
2019-04-05T23:17:53.548Z,7.70
2019-04-05T23:20:23.050Z,7.62
2019-04-05T23:22:52.448Z,7.65
2019-04-05T23:25:22.514Z,7.58
2019-04-05T23:27:51.968Z,7.42
2019-04-05T23:30:22.832Z,7.35
2019-04-05T23:32:52.230Z,7.48
2019-04-05T23:35:21.665Z,7.34
2019-04-05T23:37:51.133Z,7.31
2019-04-05T23:40:20.550Z,7.35
2019-04-05T23:42:49.952Z,7.22
2019-04-05T23:45:19.461Z,7.12
2019-04-05T23:47:48.860Z,7.02
2019-04-05T23:50:18.282Z,7.07
2019-04-05T23:52:47.689Z,7.22
2019-04-05T23:55:17.137Z,7.04
2019-04-05T23:57:46.561Z,6.94
